createdAt,value
2018-05-25T00:01:42.439Z,39.73
2018-05-25T00:04:10.166Z,36.07
2018-05-25T00:06:39.257Z,43.60
2018-05-25T00:09:06.998Z,37.87
2018-05-25T00:11:35.384Z,45.10
2018-05-25T00:14:04.003Z,50.10
2018-05-25T00:16:32.218Z,52.97
2018-05-25T00:19:00.029Z,49.87
2018-05-25T00:21:28.588Z,68.10
2018-05-25T00:23:56.941Z,59.10
2018-05-25T00:26:24.710Z,60.73
2018-05-25T00:28:55.111Z,60.53
2018-05-25T00:31:24.826Z,55.63
2018-05-25T00:33:52.719Z,48.50
2018-05-25T00:36:21.661Z,48.83
2018-05-25T00:38:49.603Z,48.43
2018-05-25T00:41:18.201Z,47.53
2018-05-25T00:43:46.056Z,44.33
2018-05-25T00:46:13.765Z,46.57
2018-05-25T00:48:43.775Z,39.57
2018-05-25T00:51:11.668Z,39.90
2018-05-25T00:53:39.657Z,34.13
2018-05-25T00:56:07.394Z,38.17
2018-05-25T00:58:35.862Z,31.80
2018-05-25T01:01:04.874Z,29.43
2018-05-25T01:03:32.699Z,31.03
2018-05-25T01:06:01.438Z,31.80
2018-05-25T01:08:32.464Z,33.67
2018-05-25T01:11:01.551Z,32.90
2018-05-25T01:13:29.360Z,35.20
2018-05-25T01:15:58.475Z,39.07
2018-05-25T01:18:26.195Z,41.03
2018-05-25T01:20:54.584Z,40.20
2018-05-25T01:23:22.185Z,43.47
2018-05-25T01:25:50.118Z,42.37
2018-05-25T01:28:17.719Z,36.50
2018-05-25T01:30:45.467Z,37.87
2018-05-25T01:33:13.366Z,43.43
2018-05-25T01:35:42.284Z,42.07
2018-05-25T01:38:10.220Z,42.87
2018-05-25T01:40:37.857Z,37.13
2018-05-25T01:43:07.735Z,35.67
2018-05-25T01:45:35.373Z,37.10
2018-05-25T01:48:03.193Z,41.10
2018-05-25T01:50:30.902Z,36.03
2018-05-25T01:52:58.666Z,38.83
2018-05-25T01:55:26.269Z,30.40
2018-05-25T01:57:53.969Z,34.57
2018-05-25T02:00:21.656Z,27.10
2018-05-25T02:02:49.259Z,25.17
2018-05-25T02:05:16.856Z,21.13
2018-05-25T02:07:44.462Z,26.77
2018-05-25T02:10:13.923Z,23.03
2018-05-25T02:12:43.185Z,21.50
2018-05-25T02:15:12.317Z,20.20
2018-05-25T02:17:41.100Z,20.07
2018-05-25T02:20:10.159Z,22.67
2018-05-25T02:22:39.704Z,23.00
2018-05-25T02:25:07.485Z,19.43
2018-05-25T02:27:36.065Z,21.10
2018-05-25T02:30:03.964Z,22.63
2018-05-25T02:32:31.884Z,21.87
2018-05-25T02:34:59.958Z,21.50
2018-05-25T02:37:28.553Z,22.67
2018-05-25T02:39:56.760Z,23.03
2018-05-25T02:42:24.810Z,21.63
2018-05-25T02:44:55.675Z,20.03
2018-05-25T02:47:24.314Z,24.97
2018-05-25T02:49:52.770Z,27.73
2018-05-25T02:52:20.586Z,23.97
2018-05-25T02:54:49.080Z,24.67
2018-05-25T02:57:17.908Z,26.97
2018-05-25T02:59:46.624Z,25.13
2018-05-25T03:02:15.815Z,27.93
2018-05-25T03:04:44.147Z,25.40
2018-05-25T03:07:12.968Z,23.63
2018-05-25T03:09:40.697Z,24.57
2018-05-25T03:12:08.463Z,22.40
2018-05-25T03:14:36.277Z,24.13
2018-05-25T03:17:04.184Z,23.53
2018-05-25T03:19:31.970Z,22.47
2018-05-25T03:22:01.084Z,24.97
2018-05-25T03:24:29.116Z,27.93
2018-05-25T03:26:57.018Z,26.80
2018-05-25T03:29:24.877Z,26.63
2018-05-25T03:31:52.809Z,23.23
2018-05-25T03:34:20.466Z,34.40
2018-05-25T03:36:48.284Z,29.97
2018-05-25T03:39:16.915Z,28.83
2018-05-25T03:41:45.685Z,23.67
2018-05-25T03:44:13.758Z,28.07
2018-05-25T03:46:41.421Z,28.40
2018-05-25T03:49:09.525Z,32.93
2018-05-25T03:51:37.123Z,34.50
2018-05-25T03:54:05.235Z,35.33
2018-05-25T03:56:32.852Z,38.27
2018-05-25T03:59:12.323Z,40.70
2018-05-25T04:01:52.544Z,43.47
2018-05-25T04:04:20.199Z,42.30
2018-05-25T04:06:47.798Z,39.40
2018-05-25T04:09:15.451Z,42.57
2018-05-25T04:11:43.951Z,42.10
2018-05-25T04:14:11.639Z,36.03
2018-05-25T04:16:39.551Z,29.50
2018-05-25T04:19:07.380Z,29.63
2018-05-25T04:21:35.845Z,35.67
2018-05-25T04:24:04.359Z,38.23
2018-05-25T04:26:31.993Z,28.70
2018-05-25T04:28:59.630Z,24.53
2018-05-25T04:31:27.304Z,24.43
2018-05-25T04:33:55.112Z,22.53
2018-05-25T04:36:22.795Z,20.57
2018-05-25T04:38:50.638Z,24.27
2018-05-25T04:41:19.017Z,24.00
2018-05-25T04:43:47.451Z,24.67
2018-05-25T04:46:15.060Z,23.47
2018-05-25T04:48:43.421Z,20.47
2018-05-25T04:51:11.103Z,17.13
2018-05-25T04:53:39.722Z,21.03
2018-05-25T04:56:07.795Z,23.40
2018-05-25T04:58:35.366Z,23.57
2018-05-25T05:01:02.985Z,22.87
2018-05-25T05:03:31.353Z,19.40
2018-05-25T05:05:58.933Z,28.93
2018-05-25T05:08:26.612Z,29.77
2018-05-25T05:10:55.006Z,31.87
2018-05-25T05:13:22.659Z,31.27
2018-05-25T05:15:50.369Z,25.73
2018-05-25T05:18:18.787Z,22.87
2018-05-25T05:20:46.448Z,24.80
2018-05-25T05:23:15.019Z,22.03
2018-05-25T05:25:42.645Z,20.83
2018-05-25T05:28:10.355Z,22.30
2018-05-25T05:30:38.859Z,31.13
2018-05-25T05:33:07.235Z,31.00
2018-05-25T05:35:34.862Z,30.53
2018-05-25T05:38:02.514Z,32.07
2018-05-25T05:40:30.139Z,27.57
2018-05-25T05:43:00.599Z,28.93
2018-05-25T05:45:28.224Z,21.57
2018-05-25T05:47:56.643Z,32.13
2018-05-25T05:50:24.303Z,28.97
2018-05-25T05:52:51.880Z,27.23
2018-05-25T05:55:20.180Z,27.60
2018-05-25T05:57:47.798Z,21.13
2018-05-25T06:00:15.489Z,21.43
2018-05-25T06:02:43.162Z,25.73
2018-05-25T06:05:11.027Z,29.27
2018-05-25T06:07:38.736Z,28.37
2018-05-25T06:10:07.302Z,26.70
2018-05-25T06:12:34.908Z,22.40
2018-05-25T06:15:02.569Z,24.37
2018-05-25T06:17:30.981Z,25.60
2018-05-25T06:19:58.609Z,24.00
2018-05-25T06:22:26.236Z,25.80
2018-05-25T06:24:53.919Z,22.33
2018-05-25T06:27:21.531Z,28.10
2018-05-25T06:29:49.196Z,22.20
2018-05-25T06:32:17.054Z,25.17
2018-05-25T06:34:44.747Z,18.90
2018-05-25T06:37:12.374Z,18.87
2018-05-25T06:39:40.795Z,19.33
2018-05-25T06:42:08.515Z,22.47
2018-05-25T06:44:36.968Z,21.67
2018-05-25T06:47:06.117Z,23.33
2018-05-25T06:49:33.738Z,20.30
2018-05-25T06:52:01.367Z,20.70
2018-05-25T06:54:29.779Z,20.20
2018-05-25T06:56:57.376Z,25.83
2018-05-25T06:59:25.935Z,20.07
2018-05-25T07:01:53.717Z,20.30
2018-05-25T07:04:26.822Z,25.77
2018-05-25T07:06:56.825Z,21.60
2018-05-25T07:09:26.283Z,22.83
2018-05-25T07:11:55.147Z,20.80
2018-05-25T07:14:22.812Z,19.27
2018-05-25T07:16:51.725Z,16.27
2018-05-25T07:19:20.058Z,15.67
2018-05-25T07:21:47.832Z,13.20
2018-05-25T07:24:16.497Z,19.43
2018-05-25T07:26:44.760Z,19.90
2018-05-25T07:29:12.869Z,24.33
2018-05-25T07:31:41.335Z,15.53
2018-05-25T07:34:08.987Z,15.43
2018-05-25T07:36:36.567Z,15.97
2018-05-25T07:39:04.240Z,12.10
2018-05-25T07:41:32.050Z,11.80
2018-05-25T07:43:59.934Z,12.77
2018-05-25T07:46:27.789Z,12.60
2018-05-25T07:48:55.473Z,11.90
2018-05-25T07:51:23.065Z,13.87
2018-05-25T07:53:51.222Z,11.67
2018-05-25T07:56:18.832Z,12.53
2018-05-25T07:58:47.205Z,12.73
2018-05-25T08:01:15.737Z,10.83
2018-05-25T08:03:44.647Z,12.17
2018-05-25T08:06:12.261Z,14.27
2018-05-25T08:08:39.979Z,11.03
2018-05-25T08:11:07.701Z,11.37
2018-05-25T08:13:35.348Z,8.63
2018-05-25T08:16:03.064Z,11.70
2018-05-25T08:18:30.735Z,9.33
2018-05-25T08:20:58.347Z,9.67
2018-05-25T08:23:26.398Z,11.53
2018-05-25T08:25:54.034Z,11.90
2018-05-25T08:28:21.676Z,10.93
2018-05-25T08:30:49.375Z,8.40
2018-05-25T08:33:16.984Z,9.77
2018-05-25T08:35:45.428Z,8.13
2018-05-25T08:38:14.884Z,10.57
2018-05-25T08:40:43.276Z,8.70
2018-05-25T08:43:11.769Z,8.67
2018-05-25T08:45:40.329Z,6.83
2018-05-25T08:48:08.201Z,7.40
2018-05-25T08:50:35.988Z,8.07
2018-05-25T08:53:04.779Z,6.90
2018-05-25T08:55:33.125Z,7.47
2018-05-25T08:58:00.773Z,8.27
2018-05-25T09:00:28.698Z,6.50
2018-05-25T09:02:57.351Z,7.70
2018-05-25T09:05:25.733Z,8.03
2018-05-25T09:07:53.386Z,8.50
2018-05-25T09:10:21.325Z,8.30
2018-05-25T09:12:48.990Z,7.60
2018-05-25T09:15:16.716Z,5.97
2018-05-25T09:17:44.445Z,7.30
2018-05-25T09:20:13.041Z,6.73
2018-05-25T09:22:40.793Z,7.20
2018-05-25T09:25:08.552Z,7.07
2018-05-25T09:27:36.298Z,5.10
2018-05-25T09:30:04.162Z,5.43
2018-05-25T09:32:44.904Z,5.57
2018-05-25T09:35:13.173Z,6.10
2018-05-25T09:37:40.905Z,5.47
2018-05-25T09:40:08.908Z,5.17
2018-05-25T09:42:37.728Z,6.00
2018-05-25T09:45:06.571Z,5.80
2018-05-25T09:47:34.297Z,6.07
2018-05-25T09:50:02.021Z,6.47
2018-05-25T09:52:30.478Z,4.67
2018-05-25T09:54:58.580Z,6.00
2018-05-25T09:57:27.283Z,7.10
2018-05-25T09:59:56.221Z,6.83
2018-05-25T10:02:26.120Z,5.70
2018-05-25T10:04:53.870Z,5.63
2018-05-25T10:07:21.948Z,6.17
2018-05-25T10:09:50.614Z,5.20
2018-05-25T10:12:18.777Z,6.20
2018-05-25T10:14:47.263Z,6.87
2018-05-25T10:17:15.103Z,7.17
2018-05-25T10:19:43.143Z,5.70
2018-05-25T10:22:11.115Z,6.30
2018-05-25T10:24:38.777Z,6.80
2018-05-25T10:27:06.389Z,5.87
2018-05-25T10:29:34.137Z,7.20
2018-05-25T10:32:02.171Z,6.53
2018-05-25T10:34:29.812Z,6.97
2018-05-25T10:36:58.246Z,8.20
2018-05-25T10:39:26.530Z,6.90
2018-05-25T10:41:55.679Z,7.33
2018-05-25T10:44:23.559Z,6.30
2018-05-25T10:46:53.832Z,6.43
2018-05-25T10:49:23.978Z,6.43
2018-05-25T10:51:51.786Z,6.07
2018-05-25T10:54:20.251Z,7.40
2018-05-25T10:56:47.974Z,5.00
2018-05-25T10:59:15.597Z,6.30
2018-05-25T11:01:43.218Z,5.60
2018-05-25T11:04:11.896Z,5.60
2018-05-25T11:06:39.457Z,5.30
2018-05-25T11:09:08.481Z,5.20
2018-05-25T11:11:37.041Z,5.20
2018-05-25T11:14:04.931Z,6.00
2018-05-25T11:16:32.833Z,5.63
2018-05-25T11:19:01.161Z,5.77
2018-05-25T11:21:29.699Z,5.70
2018-05-25T11:23:57.459Z,5.70
2018-05-25T11:26:25.245Z,5.90
2018-05-25T11:28:52.849Z,6.57
2018-05-25T11:31:20.999Z,7.07
2018-05-25T11:33:49.636Z,6.17
2018-05-25T11:36:19.841Z,5.00
2018-05-25T11:38:48.172Z,6.43
2018-05-25T11:41:19.080Z,5.13
2018-05-25T11:43:49.718Z,5.33
2018-05-25T11:46:18.727Z,6.40
2018-05-25T11:48:46.443Z,7.50
2018-05-25T11:51:15.686Z,7.53
2018-05-25T11:53:43.432Z,7.73
2018-05-25T11:56:11.927Z,7.37
2018-05-25T11:58:39.569Z,6.10
2018-05-25T12:01:07.199Z,7.57
2018-05-25T12:03:34.809Z,7.10
2018-05-25T12:08:36.518Z,6.37
2018-05-25T12:11:05.008Z,5.97
2018-05-25T12:13:33.412Z,5.63
2018-05-25T12:16:01.813Z,6.20
2018-05-25T12:18:29.409Z,4.87
2018-05-25T12:20:57.210Z,3.67
2018-05-25T12:23:24.894Z,4.33
2018-05-25T12:25:52.505Z,5.00
2018-05-25T12:28:20.152Z,4.90
2018-05-25T12:30:47.771Z,5.23
2018-05-25T12:33:15.398Z,5.50
2018-05-25T12:35:43.005Z,5.80
2018-05-25T12:38:10.661Z,5.13
2018-05-25T12:40:38.345Z,4.63
2018-05-25T12:43:05.996Z,4.70
2018-05-25T12:45:35.993Z,5.03
2018-05-25T12:48:03.710Z,5.40
2018-05-25T12:50:31.526Z,5.53
2018-05-25T12:52:59.136Z,7.00
2018-05-25T12:55:26.804Z,5.80
2018-05-25T12:57:54.389Z,5.00
2018-05-25T13:00:22.798Z,5.40
2018-05-25T13:02:50.433Z,4.00
2018-05-25T13:05:18.054Z,5.67
2018-05-25T13:07:47.349Z,5.87
2018-05-25T13:10:14.978Z,6.83
2018-05-25T13:12:42.560Z,5.33
2018-05-25T13:15:10.164Z,6.03
2018-05-25T13:17:38.496Z,5.20
2018-05-25T13:20:10.031Z,4.77
2018-05-25T13:22:38.248Z,5.03
2018-05-25T13:25:06.700Z,5.40
2018-05-25T13:27:34.343Z,5.00
2018-05-25T13:30:02.113Z,6.50
2018-05-25T13:35:03.938Z,5.00
2018-05-25T13:37:32.365Z,5.50
2018-05-25T13:40:00.083Z,6.33
2018-05-25T13:42:29.479Z,7.23
2018-05-25T13:44:57.110Z,6.00
2018-05-25T13:47:24.968Z,5.63
2018-05-25T13:49:52.597Z,6.20
2018-05-25T13:52:21.272Z,6.50
2018-05-25T13:54:50.505Z,6.63
2018-05-25T13:57:18.105Z,5.70
2018-05-25T13:59:46.126Z,6.23
2018-05-25T14:02:15.579Z,6.70
2018-05-25T14:04:45.074Z,5.80
2018-05-25T14:09:47.260Z,5.53
2018-05-25T14:12:14.879Z,5.50
2018-05-25T14:14:43.423Z,5.20
2018-05-25T14:17:11.683Z,4.53
2018-05-25T14:19:39.340Z,4.50
2018-05-25T14:22:07.038Z,4.60
2018-05-25T14:24:34.653Z,4.30
2018-05-25T14:27:02.621Z,5.83
2018-05-25T14:29:30.438Z,5.83
2018-05-25T14:31:59.050Z,6.73
2018-05-25T14:34:28.455Z,6.13
2018-05-25T14:36:56.092Z,5.87
2018-05-25T14:39:23.807Z,5.30
2018-05-25T14:41:52.721Z,5.20
2018-05-25T14:44:20.338Z,4.93
2018-05-25T14:46:47.941Z,5.13
2018-05-25T14:49:16.579Z,5.53
2018-05-25T14:51:44.613Z,6.20
2018-05-25T14:54:13.877Z,5.80
2018-05-25T14:56:41.624Z,5.93
2018-05-25T14:59:09.400Z,5.43
2018-05-25T15:01:37.074Z,7.40
2018-05-25T15:04:05.954Z,5.63
2018-05-25T15:06:34.468Z,5.80
2018-05-25T15:09:03.786Z,5.40
2018-05-25T15:11:32.208Z,5.60
2018-05-25T15:13:59.841Z,4.50
2018-05-25T15:16:27.642Z,5.80
2018-05-25T15:18:55.764Z,5.97
2018-05-25T15:21:23.597Z,4.43
2018-05-25T15:23:51.497Z,4.70
2018-05-25T15:26:19.896Z,4.47
2018-05-25T15:28:48.306Z,5.10
2018-05-25T15:31:17.305Z,5.17
2018-05-25T15:33:48.151Z,5.43
2018-05-25T15:36:15.937Z,5.00
2018-05-25T15:38:44.717Z,4.60
2018-05-25T15:41:13.291Z,4.20
2018-05-25T15:43:41.802Z,3.90
2018-05-25T15:46:09.685Z,5.30
2018-05-25T15:48:38.160Z,5.73
2018-05-25T15:51:05.835Z,6.13
2018-05-25T15:53:33.693Z,5.00
2018-05-25T15:56:01.298Z,6.20
2018-05-25T15:58:28.911Z,5.67
2018-05-25T16:00:56.546Z,6.23
2018-05-25T16:03:25.214Z,5.87
2018-05-25T16:05:53.856Z,6.57
2018-05-25T16:08:21.746Z,6.57
2018-05-25T16:10:49.565Z,7.00
2018-05-25T16:13:17.939Z,5.97
2018-05-25T16:15:45.619Z,7.50
2018-05-25T16:18:13.298Z,6.77
2018-05-25T16:20:40.953Z,6.73
2018-05-25T16:23:09.662Z,6.40
2018-05-25T16:25:37.397Z,5.90
2018-05-25T16:28:05.766Z,5.67
2018-05-25T16:30:33.504Z,5.80
2018-05-25T16:33:01.200Z,6.60
2018-05-25T16:35:28.851Z,6.07
2018-05-25T16:37:56.490Z,5.33
2018-05-25T16:40:24.141Z,6.10
2018-05-25T16:42:51.984Z,4.83
2018-05-25T16:45:19.694Z,5.10
2018-05-25T16:47:48.058Z,5.63
2018-05-25T16:50:15.891Z,6.10
2018-05-25T16:52:43.509Z,5.23
2018-05-25T16:55:11.163Z,5.13
2018-05-25T16:57:38.786Z,6.60
2018-05-25T17:00:08.155Z,5.93
2018-05-25T17:02:35.928Z,6.77
2018-05-25T17:05:04.191Z,6.53
2018-05-25T17:07:31.731Z,5.73
2018-05-25T17:09:59.864Z,5.90
2018-05-25T17:12:27.556Z,6.90
2018-05-25T17:14:55.240Z,6.03
2018-05-25T17:17:23.994Z,6.77
2018-05-25T17:19:51.816Z,6.30
2018-05-25T17:22:21.228Z,5.93
2018-05-25T17:24:50.906Z,5.27
2018-05-25T17:27:19.798Z,5.50
2018-05-25T17:29:47.420Z,5.30
2018-05-25T17:32:15.071Z,6.60
2018-05-25T17:34:43.531Z,6.50
2018-05-25T17:37:11.263Z,5.93
2018-05-25T17:39:38.835Z,4.53
2018-05-25T17:42:06.446Z,4.33
2018-05-25T17:44:34.803Z,4.60
2018-05-25T17:47:02.498Z,4.60
2018-05-25T17:49:30.137Z,5.17
2018-05-25T17:51:57.787Z,5.03
2018-05-25T17:54:26.229Z,5.70
2018-05-25T17:56:53.988Z,4.43
2018-05-25T17:59:21.538Z,4.00
2018-05-25T18:01:49.200Z,5.03
2018-05-25T18:04:16.804Z,4.40
2018-05-25T18:06:45.185Z,4.27
2018-05-25T18:09:13.626Z,5.40
2018-05-25T18:11:41.213Z,5.13
2018-05-25T18:14:08.796Z,5.00
2018-05-25T18:16:36.414Z,5.00
2018-05-25T18:19:04.084Z,4.40
2018-05-25T18:21:31.741Z,4.50
2018-05-25T18:23:59.318Z,4.17
2018-05-25T18:26:26.894Z,5.40
2018-05-25T18:28:54.782Z,4.90
2018-05-25T18:31:23.133Z,5.23
2018-05-25T18:33:50.748Z,5.77
2018-05-25T18:36:18.369Z,4.87
2018-05-25T18:38:47.287Z,5.40
2018-05-25T18:41:14.906Z,4.73
2018-05-25T18:43:42.662Z,5.17
2018-05-25T18:46:11.014Z,5.13
2018-05-25T18:48:38.616Z,5.07
2018-05-25T18:51:06.681Z,4.63
2018-05-25T18:53:35.093Z,4.43
2018-05-25T18:56:03.704Z,4.27
2018-05-25T18:58:31.306Z,4.57
2018-05-25T19:00:58.923Z,4.83
2018-05-25T19:03:27.179Z,4.67
2018-05-25T19:05:54.841Z,4.17
2018-05-25T19:08:22.487Z,4.70
2018-05-25T19:10:50.067Z,4.63
2018-05-25T19:13:17.646Z,4.77
2018-05-25T19:15:45.258Z,5.60
2018-05-25T19:18:13.793Z,5.17
2018-05-25T19:20:41.402Z,5.30
2018-05-25T19:23:08.988Z,4.80
2018-05-25T19:25:36.643Z,5.80
2018-05-25T19:28:05.023Z,5.80
2018-05-25T19:30:32.761Z,6.23
2018-05-25T19:33:01.365Z,6.47
2018-05-25T19:35:30.341Z,5.53
2018-05-25T19:37:57.918Z,5.80
2018-05-25T19:40:25.545Z,7.10
2018-05-25T19:42:53.958Z,7.07
2018-05-25T19:45:21.594Z,7.03
2018-05-25T19:47:49.436Z,7.33
2018-05-25T19:50:17.079Z,6.50
2018-05-25T19:52:44.714Z,5.90
2018-05-25T19:55:12.296Z,5.70
2018-05-25T19:57:41.262Z,7.40
2018-05-25T20:00:09.617Z,6.97
2018-05-25T20:02:37.222Z,6.60
2018-05-25T20:05:04.828Z,6.50
2018-05-25T20:07:32.490Z,6.97
2018-05-25T20:10:00.085Z,6.40
2018-05-25T20:12:27.710Z,6.07
2018-05-25T20:14:56.069Z,6.50
2018-05-25T20:17:23.704Z,6.60
2018-05-25T20:19:51.296Z,6.47
2018-05-25T20:22:18.890Z,5.70
2018-05-25T20:24:46.524Z,7.57
2018-05-25T20:27:14.154Z,6.60
2018-05-25T20:29:42.692Z,6.90
2018-05-25T20:32:11.098Z,7.20
2018-05-25T20:34:38.754Z,8.73
2018-05-25T20:37:06.339Z,6.70
2018-05-25T20:39:33.950Z,6.47
2018-05-25T20:42:02.360Z,5.93
2018-05-25T20:44:29.980Z,7.30
2018-05-25T20:46:59.240Z,7.33
2018-05-25T20:49:27.027Z,6.53
2018-05-25T20:51:54.717Z,8.37
2018-05-25T20:54:22.356Z,8.00
2018-05-25T20:56:49.934Z,6.47
2018-05-25T20:59:18.773Z,7.73
2018-05-25T21:01:47.525Z,6.03
2018-05-25T21:04:15.219Z,7.03
2018-05-25T21:06:42.860Z,7.10
2018-05-25T21:09:10.433Z,6.80
2018-05-25T21:11:38.817Z,6.93
2018-05-25T21:14:07.288Z,6.63
2018-05-25T21:16:34.921Z,7.40
2018-05-25T21:19:02.506Z,7.93
2018-05-25T21:21:30.290Z,7.40
2018-05-25T21:24:01.726Z,7.87
2018-05-25T21:26:29.329Z,9.40
2018-05-25T21:28:56.930Z,12.13
2018-05-25T21:31:24.593Z,12.73
2018-05-25T21:33:52.182Z,12.23
2018-05-25T21:36:19.769Z,11.73
2018-05-25T21:38:48.274Z,13.43
2018-05-25T21:41:15.942Z,15.73
2018-05-25T21:43:43.557Z,14.33
2018-05-25T21:46:11.173Z,15.50
2018-05-25T21:48:39.613Z,16.03
2018-05-25T21:51:07.211Z,15.77
2018-05-25T21:53:37.344Z,14.20
2018-05-25T21:56:04.970Z,14.57
2018-05-25T21:58:32.865Z,15.17
2018-05-25T22:01:06.141Z,15.27
2018-05-25T22:03:36.361Z,17.60
2018-05-25T22:06:04.236Z,14.27
2018-05-25T22:08:34.746Z,15.57
2018-05-25T22:11:02.500Z,15.10
2018-05-25T22:13:31.082Z,15.07
2018-05-25T22:16:00.410Z,13.63
2018-05-25T22:18:28.068Z,15.90
2018-05-25T22:20:56.104Z,17.60
2018-05-25T22:23:28.830Z,15.53
2018-05-25T22:25:56.840Z,14.77
2018-05-25T22:28:24.459Z,15.87
2018-05-25T22:30:52.214Z,15.90
2018-05-25T22:33:23.781Z,18.80
2018-05-25T22:35:53.230Z,18.60
2018-05-25T22:38:21.360Z,20.70
2018-05-25T22:40:49.537Z,20.90
2018-05-25T22:43:29.236Z,21.47
2018-05-25T22:46:09.213Z,19.83
2018-05-25T22:48:49.292Z,19.87
2018-05-25T22:51:30.406Z,20.70
2018-05-25T22:54:03.665Z,21.00
2018-05-25T22:56:31.911Z,20.03
2018-05-25T22:59:01.595Z,19.53
2018-05-25T23:01:29.555Z,20.53
2018-05-25T23:04:01.094Z,24.30
2018-05-25T23:06:29.633Z,19.90
2018-05-25T23:08:58.782Z,18.87
2018-05-25T23:11:27.560Z,20.60
2018-05-25T23:13:55.654Z,19.30
2018-05-25T23:16:24.203Z,17.87
2018-05-25T23:18:53.759Z,19.03
2018-05-25T23:21:26.551Z,19.57
2018-05-25T23:23:54.225Z,19.47
2018-05-25T23:26:22.037Z,19.03
2018-05-25T23:28:49.824Z,17.60
2018-05-25T23:31:21.828Z,22.43
2018-05-25T23:33:50.288Z,22.07
2018-05-25T23:36:18.837Z,23.90
2018-05-25T23:38:48.505Z,23.47
2018-05-25T23:41:16.289Z,20.63
2018-05-25T23:43:44.095Z,23.33
2018-05-25T23:46:11.920Z,19.73
2018-05-25T23:48:39.968Z,18.33
2018-05-25T23:51:08.390Z,17.90
2018-05-25T23:53:36.590Z,16.53
2018-05-25T23:56:04.894Z,15.87
2018-05-25T23:58:33.808Z,13.77
